This demonstration page uses our WeatherBlox Daily Observations layout. Learn more.

39.92423, -83.80882

Hourly Observations for July 16, 2016

Temp ( °F °C ) Dew Point ( °F °C ) Humidity (%) Winds ( mph kmh ) Pressure ( in mb ) Visibility ( mi km ) Precip ( " mm )
12:56 am 00:56 Mostly Clear 68 20 62 16.7 81 81 W 3 6 30.03 1017 10 16.0934 0 0
1:56 am 01:56 Mostly Cloudy 68 20 60 15.6 76 76 NW 5 7 30.02 1017 10 16.0934 0 0
3:56 am 03:56 Partly Cloudy 65 18.3 61 16.1 87 87 NNW 3 6 30.03 1017 10 16.0934 0 0
4:56 am 04:56 Clear 64 17.8 60 15.6 87 87 NW 5 7 30.04 1017 10 16.0934 0 0
5:56 am 05:56 Clear 64 17.8 61 16.1 90 90 NW 3 6 30.05 1018 10 16.0934 0 0
6:56 am 06:56 Mostly Cloudy 63 17.2 61 16.1 93 93 NW 5 7 30.07 1018 10 16.0934 0 0
7:56 am 07:56 Mostly Sunny 65 18.3 62 16.7 90 90 WNW 3 6 30.09 1019 10 16.0934 0 0
8:56 am 08:56 Sunny 68 20 62 16.7 81 81 N 7 11 30.09 1019 10 16.0934 0 0
9:56 am 09:56 Sunny 72 22.2 63 17.2 73 73 Calm 30.1 1019 10 16.0934 0 0
11:56 am 11:56 Mostly Cloudy 76 24.4 62 16.7 62 62 VRB 7 11 30.11 1020 10 16.0934 0 0
12:56 pm 12:56 Partly Cloudy 75 23.9 64 17.8 69 69 W 9 15 N/A 10 16.0934 0 0
1:56 pm 13:56 Sunny 77 25 63 17.2 62 62 NNW 7 11 30.12 1020 10 16.0934 0 0
2:56 pm 14:56 Mostly Sunny 78 25.6 62 16.7 58 58 W 8 13 30.11 1020 10 16.0934 0 0
3:56 pm 15:56 Sunny 80 26.7 62 16.7 54 54 VRB 7 11 N/A 10 16.0934 0 0
4:56 pm 16:56 Mostly Sunny 78 25.6 61 16.1 56 56 VRB 6 9 30.09 1019 10 16.0934 0 0
5:56 pm 17:56 Sunny 79 26.1 61 16.1 54 54 W 8 13 30.08 1019 10 16.0934 0 0
6:56 pm 18:56 Mostly Sunny 79 26.1 61 16.1 54 54 NW 7 11 30.08 1019 10 16.0934 0 0
7:56 pm 19:56 Sunny 78 25.6 60 15.6 54 54 WNW 7 11 30.09 1019 10 16.0934 0 0
8:56 pm 20:56 Sunny 74 23.3 61 16.1 64 64 NW 5 7 30.1 1019 10 16.0934 0 0
9:56 pm 21:56 Clear 70 21.1 61 16.1 73 73 Calm 30.11 1020 10 16.0934 0 0
10:56 pm 22:56 Clear 66 18.9 62 16.7 87 87 Calm 30.13 1020 10 16.0934 0 0
11:56 pm 23:56 Clear 64 17.8 62 16.7 93 93 Calm 30.13 1020 10 16.0934 0 0

Powered by AerisWeather